Time;durP1;ratioP1;P1;durP2;ratioP2;P2;SDS_P1;SDS_P2;PMS_P1;PMS_P2;Temp;Humidity;BMP_temperature;BMP_pressure;BME280_temperature;BME280_humidity;BME280_pressure;Samples;Min_cycle;Max_cycle;Signal;HPM_P1;HPM_P2
2021/10/15 00:00:13;;;;;;;9.85;6.03;;;;;;;12.38;89.76;101211.03;5038746;28;20500;-89
2021/10/15 00:02:41;;;;;;;8.70;5.55;;;;;;;12.39;89.86;101203.78;5046328;28;20095;-90
2021/10/15 00:05:09;;;;;;;10.95;6.05;;;;;;;12.39;89.64;101203.78;5043391;28;20520;-87
2021/10/15 00:07:35;;;;;;;11.25;5.60;;;;;;;12.37;89.71;101201.28;5028438;28;20046;-89
2021/10/15 00:10:00;;;;;;;12.13;5.97;;;;;;;12.38;89.47;101196.75;5058723;28;20394;-85
2021/10/15 00:12:26;;;;;;;11.23;5.97;;;;;;;12.37;89.58;101184.28;5065040;28;20063;-86
2021/10/15 00:14:52;;;;;;;10.80;5.93;;;;;;;12.36;89.49;101180.75;5065995;28;20040;-86
2021/10/15 00:17:19;;;;;;;12.60;5.85;;;;;;;12.36;89.41;101182.59;5062016;28;20037;-87
2021/10/15 00:19:44;;;;;;;9.25;5.75;;;;;;;12.36;89.40;101179.91;5057441;28;20044;-84
2021/10/15 00:22:11;;;;;;;9.13;5.07;;;;;;;12.34;89.21;101185.47;5064434;28;20131;-85
2021/10/15 00:24:39;;;;;;;13.90;5.85;;;;;;;12.34;89.05;101176.53;5067814;28;20051;-84
2021/10/15 00:27:04;;;;;;;8.98;4.90;;;;;;;12.33;88.97;101173.00;5062272;28;20082;-85
2021/10/15 00:29:29;;;;;;;11.90;5.60;;;;;;;12.33;89.03;101172.16;5062193;28;20041;-84
2021/10/15 00:31:56;;;;;;;9.60;5.15;;;;;;;12.34;88.86;101163.94;5059541;28;20037;-86
2021/10/15 00:34:22;;;;;;;10.88;5.50;;;;;;;12.33;88.75;101154.16;5073147;28;20041;-89
2021/10/15 00:36:47;;;;;;;11.88;5.07;;;;;;;12.32;88.74;101155.19;5062365;28;20037;-88
2021/10/15 00:39:13;;;;;;;9.60;5.53;;;;;;;12.32;88.62;101149.81;5063143;28;20082;-84
2021/10/15 00:41:39;;;;;;;9.95;5.13;;;;;;;12.31;88.58;101148.09;5055254;28;20111;-82
2021/10/15 00:44:10;;;;;;;9.88;4.72;;;;;;;12.30;88.37;101143.75;5066487;28;20052;-89
2021/10/15 00:46:37;;;;;;;9.77;5.05;;;;;;;12.29;88.15;101139.38;5061050;28;20064;-89
2021/10/15 00:49:09;;;;;;;11.85;4.80;;;;;;;12.29;88.00;101134.00;5061561;28;20067;-83
2021/10/15 00:51:37;;;;;;;9.00;4.50;;;;;;;12.30;88.12;101140.22;5067188;28;20044;-82
2021/10/15 00:54:04;;;;;;;10.25;4.82;;;;;;;12.28;87.66;101142.22;5058796;28;20075;-87
2021/10/15 00:56:31;;;;;;;6.90;4.28;;;;;;;12.26;87.77;101131.63;5056776;28;20041;-87
2021/10/15 00:59:03;;;;;;;9.23;4.55;;;;;;;12.25;87.44;101132.63;5032615;28;20043;-87
2021/10/15 01:01:29;;;;;;;8.35;4.60;;;;;;;12.24;87.38;101130.13;5042782;28;20053;-83
2021/10/15 01:03:59;;;;;;;9.88;5.00;;;;;;;12.25;87.29;101146.09;5045608;28;20044;-89
2021/10/15 01:06:26;;;;;;;8.90;4.88;;;;;;;12.22;87.11;101130.28;5041164;28;20436;-88
2021/10/15 01:08:53;;;;;;;9.50;4.63;;;;;;;12.23;87.09;101123.03;5044116;28;20052;-84
2021/10/15 01:11:23;;;;;;;9.30;5.03;;;;;;;12.22;87.14;101124.88;5046340;28;20128;-88
2021/10/15 01:13:50;;;;;;;11.43;4.53;;;;;;;12.21;87.14;101119.69;5061138;28;20382;-85
2021/10/15 01:16:15;;;;;;;8.27;4.72;;;;;;;12.21;87.23;101114.31;5059326;28;20484;-87
2021/10/15 01:18:43;;;;;;;10.25;4.60;;;;;;;12.18;87.25;101116.31;5066647;28;20043;-90
2021/10/15 01:21:10;;;;;;;8.38;4.78;;;;;;;12.17;87.20;101114.66;5051859;28;20079;-86
2021/10/15 01:23:38;;;;;;;8.02;4.45;;;;;;;12.16;87.46;101118.31;5045886;28;20064;-87
2021/10/15 01:26:05;;;;;;;8.00;5.00;;;;;;;12.14;87.35;101114.13;5064083;28;20033;-85
2021/10/15 01:28:32;;;;;;;8.15;4.32;;;;;;;12.13;87.47;101104.38;5061493;28;20065;-83
2021/10/15 01:31:00;;;;;;;8.50;4.75;;;;;;;12.13;87.48;101110.59;5065605;28;20037;-84
2021/10/15 01:33:27;;;;;;;9.98;4.80;;;;;;;12.12;87.72;101100.00;5059976;28;20070;-89
2021/10/15 01:35:53;;;;;;;9.63;4.40;;;;;;;12.10;87.71;101096.63;5068225;28;20044;-88
2021/10/15 01:38:19;;;;;;;8.73;5.13;;;;;;;12.09;87.79;101089.59;5069789;28;20539;-83
2021/10/15 01:40:46;;;;;;;9.35;5.30;;;;;;;12.10;87.91;101083.19;5055281;28;20037;-82
2021/10/15 01:43:19;;;;;;;8.27;4.65;;;;;;;12.07;87.87;101095.13;5091811;28;20044;-83
2021/10/15 01:45:45;;;;;;;9.32;4.47;;;;;;;12.07;87.93;101095.13;5070289;28;20119;-88
2021/10/15 01:48:11;;;;;;;7.70;4.72;;;;;;;12.05;87.79;101082.84;5067480;28;20485;-84
2021/10/15 01:50:38;;;;;;;7.47;4.60;;;;;;;12.02;87.94;101084.00;5071322;28;20060;-84
2021/10/15 01:53:08;;;;;;;8.77;4.78;;;;;;;12.03;87.87;101079.50;5042580;28;20032;-90
2021/10/15 01:55:34;;;;;;;9.25;5.00;;;;;;;12.00;87.77;101074.44;5039689;28;20094;-85
2021/10/15 01:58:00;;;;;;;7.15;4.15;;;;;;;11.99;87.72;101067.38;5044684;28;20502;-87
2021/10/15 02:00:25;;;;;;;7.00;3.92;;;;;;;11.98;87.52;101066.53;5065914;28;20070;-85
2021/10/15 02:02:52;;;;;;;9.18;5.30;;;;;;;11.95;87.55;101062.34;5067337;28;20619;-87
2021/10/15 02:05:18;;;;;;;9.95;4.03;;;;;;;11.93;87.14;101058.13;5061856;28;20123;-86
2021/10/15 02:07:45;;;;;;;7.10;3.75;;;;;;;11.93;87.19;101052.75;5060423;28;20033;-85
2021/10/15 02:10:13;;;;;;;10.90;4.57;;;;;;;11.92;87.16;101054.59;5063290;28;20037;-85
2021/10/15 02:12:39;;;;;;;9.98;4.05;;;;;;;11.90;86.89;101047.69;5046066;28;20040;-89
2021/10/15 02:15:07;;;;;;;6.97;3.88;;;;;;;11.87;86.97;101042.66;5067234;28;20029;-83
2021/10/15 02:17:33;;;;;;;12.82;4.53;;;;;;;11.83;86.72;101042.13;5083366;28;20802;-84
2021/10/15 02:19:58;;;;;;;7.30;4.00;;;;;;;11.84;86.55;101038.41;5055817;28;20106;-86
2021/10/15 02:22:25;;;;;;;9.40;4.40;;;;;;;11.82;86.65;101035.03;5080344;28;20048;-85
2021/10/15 02:24:50;;;;;;;11.13;4.20;;;;;;;11.80;86.51;101037.09;5065325;28;20489;-85
2021/10/15 02:27:17;;;;;;;8.63;3.63;;;;;;;11.78;86.54;101031.03;5065862;28;20039;-84
2021/10/15 02:29:44;;;;;;;7.88;4.38;;;;;;;11.76;86.52;101041.09;5067277;28;20493;-85
2021/10/15 02:32:15;;;;;;;10.02;5.05;;;;;;;11.75;86.67;101028.66;5065783;28;20083;-86
2021/10/15 02:34:42;;;;;;;10.05;4.57;;;;;;;11.74;86.54;101032.38;5060850;28;20044;-84
2021/10/15 02:37:07;;;;;;;7.53;4.50;;;;;;;11.74;86.59;101027.00;5059856;28;20045;-85
2021/10/15 02:39:34;;;;;;;7.68;4.60;;;;;;;11.70;86.70;101025.63;5064069;28;20051;-86
2021/10/15 02:41:59;;;;;;;6.93;3.88;;;;;;;11.68;86.77;101022.25;5076180;28;20044;-84
2021/10/15 02:44:26;;;;;;;8.23;4.40;;;;;;;11.69;87.01;101021.28;5065235;28;20046;-83
2021/10/15 02:46:51;;;;;;;8.23;4.30;;;;;;;11.68;86.94;101016.88;5063537;28;20028;-86
2021/10/15 02:49:22;;;;;;;9.38;4.43;;;;;;;11.65;87.12;101006.47;5063255;28;20477;-83
2021/10/15 02:51:49;;;;;;;9.30;5.03;;;;;;;11.65;87.61;101006.47;5066817;28;20040;-89
2021/10/15 02:54:15;;;;;;;6.55;4.25;;;;;;;11.63;87.68;100998.59;5062632;28;20485;-89
2021/10/15 02:56:40;;;;;;;8.38;4.93;;;;;;;11.63;87.67;100995.06;5058470;28;20052;-82
2021/10/15 02:59:07;;;;;;;9.93;5.13;;;;;;;11.61;87.95;100991.69;5046985;28;20051;-85
2021/10/15 03:01:36;;;;;;;11.68;4.75;;;;;;;11.58;88.14;100994.72;5066731;28;20048;-87
2021/10/15 03:04:01;;;;;;;8.30;4.63;;;;;;;11.57;88.46;100984.97;5064864;28;22031;-82
2021/10/15 03:06:27;;;;;;;9.27;4.32;;;;;;;11.57;88.64;100982.28;5051333;28;20064;-81
2021/10/15 03:08:52;;;;;;;8.85;4.60;;;;;;;11.56;88.92;100973.34;5063541;28;20516;-87
2021/10/15 03:11:18;;;;;;;8.57;5.18;;;;;;;11.55;89.21;100962.78;5061849;28;20037;-87
2021/10/15 03:13:48;;;;;;;10.05;4.88;;;;;;;11.56;89.53;100972.53;5052882;28;20047;-87
2021/10/15 03:16:13;;;;;;;10.15;5.47;;;;;;;11.52;90.05;100967.47;5038364;28;20037;-83
2021/10/15 03:18:40;;;;;;;13.90;6.22;;;;;;;11.53;90.04;100966.47;5044822;28;20482;-87
2021/10/15 03:21:06;;;;;;;8.40;5.05;;;;;;;11.53;90.61;100977.22;5054779;28;20428;-82
2021/10/15 03:23:31;;;;;;;10.25;5.15;;;;;;;11.51;90.75;100965.81;5043807;28;20152;-84
2021/10/15 03:25:57;;;;;;;8.82;5.70;;;;;;;11.51;91.08;100973.03;5038446;28;20117;-84
2021/10/15 03:28:22;;;;;;;12.68;5.75;;;;;;;11.51;91.25;100968.50;5052105;28;20115;-85
2021/10/15 03:30:48;;;;;;;11.13;6.03;;;;;;;11.51;91.54;100963.13;5065790;28;20102;-88
2021/10/15 03:33:13;;;;;;;10.20;5.95;;;;;;;11.49;92.04;100962.44;5052883;28;20768;-90
2021/10/15 03:35:41;;;;;;;9.88;5.78;;;;;;;11.47;92.48;100967.13;5058344;28;20583;-87
2021/10/15 03:38:07;;;;;;;12.18;6.65;;;;;;;11.48;92.81;100946.50;5057837;28;20094;-83
2021/10/15 03:40:33;;;;;;;9.80;6.88;;;;;;;11.50;92.99;100939.94;5062280;28;20041;-86
2021/10/15 03:43:00;;;;;;;10.68;6.75;;;;;;;11.49;93.22;100948.16;5065112;28;20042;-89
2021/10/15 03:45:25;;;;;;;12.15;5.85;;;;;;;11.49;93.40;100942.78;5072784;28;20025;-88
2021/10/15 03:47:50;;;;;;;12.32;6.57;;;;;;;11.49;93.68;100959.75;5055417;28;20091;-88
2021/10/15 03:50:16;;;;;;;10.93;6.03;;;;;;;11.48;93.88;100957.25;5049151;28;20036;-90
2021/10/15 03:52:50;;;;;;;14.93;6.90;;;;;;;11.46;94.29;100959.25;5063595;28;20516;-88
2021/10/15 03:55:15;;;;;;;11.73;6.85;;;;;;;11.45;94.62;100947.66;5040827;28;20516;-86
2021/10/15 03:57:41;;;;;;;12.80;6.57;;;;;;;11.45;94.97;100947.66;5059204;28;20061;-89
2021/10/15 04:00:10;;;;;;;12.27;7.13;;;;;;;11.45;95.12;100947.66;5062118;28;20037;-86
2021/10/15 04:02:40;;;;;;;11.95;7.05;;;;;;;11.44;95.26;100937.06;5062457;28;20044;-90
2021/10/15 04:05:09;;;;;;;10.10;6.70;;;;;;;11.43;95.67;100943.47;5067397;28;20488;-84
2021/10/15 04:07:35;;;;;;;13.47;7.50;;;;;;;11.42;95.64;100934.56;5065968;28;20598;-84
2021/10/15 04:10:02;;;;;;;12.95;7.85;;;;;;;11.42;95.83;100926.50;5064286;28;20036;-86
2021/10/15 04:12:28;;;;;;;12.18;7.32;;;;;;;11.40;96.00;100923.13;5063196;28;20045;-85
2021/10/15 04:14:54;;;;;;;13.63;7.60;;;;;;;11.43;96.16;100927.34;5077693;28;20036;-86
2021/10/15 04:17:20;;;;;;;11.75;7.60;;;;;;;11.43;96.13;100922.81;5062034;28;20040;-86
2021/10/15 04:19:45;;;;;;;12.65;7.57;;;;;;;11.42;96.18;100923.81;5062896;28;20048;-85
2021/10/15 04:22:11;;;;;;;11.88;7.28;;;;;;;11.45;96.27;100917.25;5059198;28;20041;-85
2021/10/15 04:24:41;;;;;;;13.35;7.72;;;;;;;11.44;96.49;100920.94;5064526;28;20044;-87
2021/10/15 04:27:09;;;;;;;14.45;7.93;;;;;;;11.41;96.56;100919.44;5046210;28;20041;-86
2021/10/15 04:29:35;;;;;;;12.63;7.70;;;;;;;11.43;96.64;100914.75;5047363;28;20490;-86
2021/10/15 04:32:01;;;;;;;13.55;8.45;;;;;;;11.42;96.70;100921.13;5078289;28;20051;-84
2021/10/15 04:34:27;;;;;;;12.95;7.72;;;;;;;11.41;96.95;100913.22;5066808;28;20051;-85
2021/10/15 04:36:53;;;;;;;13.43;8.65;;;;;;;11.43;96.95;100916.59;5062620;28;20136;-82
2021/10/15 04:39:20;;;;;;;14.70;8.52;;;;;;;11.39;97.14;100908.00;5068823;28;20033;-82
2021/10/15 04:41:45;;;;;;;14.50;8.00;;;;;;;11.41;97.18;100913.22;5064447;28;20028;-85
2021/10/15 04:44:11;;;;;;;12.90;8.30;;;;;;;11.40;97.34;100911.56;5057387;28;20033;-86
2021/10/15 04:46:36;;;;;;;12.30;7.50;;;;;;;11.41;97.50;100913.22;5068988;28;20040;-91
2021/10/15 04:49:02;;;;;;;13.27;7.82;;;;;;;11.41;97.35;100908.69;5062104;28;20092;-82
2021/10/15 04:51:27;;;;;;;16.77;7.93;;;;;;;11.39;97.51;100891.88;5058273;28;20063;-88
2021/10/15 04:53:55;;;;;;;15.93;8.60;;;;;;;11.40;97.65;100895.44;5067598;28;20387;-84
2021/10/15 04:56:20;;;;;;;14.05;7.90;;;;;;;11.40;97.83;100901.63;5068562;28;20037;-89
2021/10/15 04:58:45;;;;;;;12.82;7.72;;;;;;;11.41;97.81;100892.56;5071713;28;20050;-81
2021/10/15 05:01:11;;;;;;;17.67;8.70;;;;;;;11.42;97.54;100891.56;5066634;28;20090;-85
2021/10/15 05:03:36;;;;;;;12.15;7.80;;;;;;;11.42;97.63;100888.88;5046487;28;20044;-87
2021/10/15 05:06:02;;;;;;;15.77;8.55;;;;;;;11.42;97.68;100883.50;5050336;28;20441;-83
2021/10/15 05:08:32;;;;;;;16.00;8.10;;;;;;;11.42;97.96;100888.03;5053073;28;20060;-87
2021/10/15 05:10:59;;;;;;;13.23;8.52;;;;;;;11.43;98.30;100884.34;5068635;28;20035;-90
2021/10/15 05:13:26;;;;;;;16.45;8.55;;;;;;;11.44;98.17;100869.91;5060057;28;20036;-83
2021/10/15 05:15:52;;;;;;;15.88;8.50;;;;;;;11.44;98.21;100876.09;5023946;28;20122;-81
2021/10/15 05:18:17;;;;;;;12.98;8.80;;;;;;;11.44;98.18;100876.09;5047622;28;20494;-89
2021/10/15 05:20:44;;;;;;;16.42;9.40;;;;;;;11.44;98.09;100870.72;5039820;28;20498;-90
2021/10/15 05:23:10;;;;;;;13.32;8.07;;;;;;;11.44;98.24;100865.34;5054177;28;20112;-86
2021/10/15 05:25:36;;;;;;;17.08;9.00;;;;;;;11.44;98.14;100865.34;5014702;28;20056;-82
2021/10/15 05:28:03;;;;;;;13.13;8.07;;;;;;;11.42;98.34;100859.34;5064003;28;20158;-87
2021/10/15 05:30:28;;;;;;;14.80;8.90;;;;;;;11.44;98.04;100861.84;5067645;28;20068;-86
2021/10/15 05:32:54;;;;;;;14.02;9.00;;;;;;;11.43;98.09;100865.53;5051623;28;20076;-86
2021/10/15 05:35:19;;;;;;;16.48;8.85;;;;;;;11.43;98.29;100857.47;5045101;28;20041;-85
2021/10/15 05:37:46;;;;;;;16.17;8.65;;;;;;;11.42;98.64;100859.34;5045503;28;20494;-81
2021/10/15 05:40:12;;;;;;;16.88;9.40;;;;;;;11.42;98.77;100862.03;5056394;28;20053;-85
2021/10/15 05:42:49;;;;;;;14.95;8.60;;;;;;;11.44;98.54;100869.91;5046762;28;20083;-82
2021/10/15 05:45:15;;;;;;;14.63;8.63;;;;;;;11.44;98.73;100857.28;5050481;28;20490;-86
2021/10/15 05:47:41;;;;;;;14.23;9.13;;;;;;;11.45;98.63;100867.06;5051580;28;20513;-87
2021/10/15 05:50:09;;;;;;;19.67;9.35;;;;;;;11.45;99.10;100860.81;5043196;28;20037;-89
2021/10/15 05:52:42;;;;;;;16.23;9.90;;;;;;;11.45;99.13;100850.94;5043078;28;20037;-89
2021/10/15 06:00:20;;;;;;;15.85;10.13;;;;;;;11.47;100.00;100862.31;5062040;28;20055;-85
2021/10/15 06:02:48;;;;;;;13.70;9.80;;;;;;;11.48;100.00;100874.78;5063433;28;20037;-83
2021/10/15 06:16:08;;;;;;;17.10;9.55;;;;;;;11.55;100.00;100868.72;5057443;28;20124;-85
2021/10/15 06:18:38;;;;;;;13.43;9.52;;;;;;;11.55;100.00;100860.66;5062685;28;20040;-83
2021/10/15 06:21:06;;;;;;;16.17;9.90;;;;;;;11.56;100.00;100856.97;5065079;28;20062;-82
2021/10/15 06:23:33;;;;;;;18.95;9.88;;;;;;;11.57;100.00;100855.97;5073696;28;20040;-86
2021/10/15 06:26:00;;;;;;;16.08;9.60;;;;;;;11.59;100.00;100837.81;5059035;28;20047;-84
2021/10/15 06:28:26;;;;;;;18.25;11.20;;;;;;;11.61;100.00;100849.22;5061880;28;20037;-84
2021/10/15 06:30:51;;;;;;;17.90;11.32;;;;;;;11.63;100.00;100850.75;5049167;28;20621;-84
2021/10/15 06:33:17;;;;;;;20.15;10.48;;;;;;;11.64;100.00;100856.97;5045571;28;20032;-85
2021/10/15 06:35:43;;;;;;;14.57;10.40;;;;;;;11.65;100.00;100859.50;5048110;28;20049;-86
2021/10/15 06:38:09;;;;;;;17.35;10.65;;;;;;;11.67;100.00;100859.31;5042625;28;20127;-87
2021/10/15 06:40:36;;;;;;;17.83;11.52;;;;;;;11.68;100.00;100866.34;5065372;28;20040;-85
2021/10/15 06:43:02;;;;;;;19.05;11.73;;;;;;;11.69;100.00;100868.03;5061037;28;20095;-86
2021/10/15 06:45:27;;;;;;;24.27;11.57;;;;;;;11.69;100.00;100859.97;5042252;28;20085;-86
2021/10/15 06:47:52;;;;;;;19.48;12.07;;;;;;;11.71;100.00;100866.03;5062720;28;20036;-87
2021/10/15 06:50:19;;;;;;;18.90;12.23;;;;;;;11.72;100.00;100855.09;5059789;28;20060;-84
2021/10/15 06:52:47;;;;;;;21.60;12.18;;;;;;;11.73;100.00;100847.88;5058220;28;20469;-86
2021/10/15 06:55:15;;;;;;;19.80;12.35;;;;;;;11.74;100.00;100860.31;5055736;28;20129;-86
2021/10/15 06:57:41;;;;;;;17.58;11.90;;;;;;;11.75;100.00;100861.97;5070873;28;20060;-85
2021/10/15 07:00:09;;;;;;;22.33;12.13;;;;;;;11.75;100.00;100859.28;5057145;28;20044;-86
2021/10/15 07:02:34;;;;;;;20.02;11.38;;;;;;;11.76;100.00;100866.34;5045699;28;20036;-88
2021/10/15 07:05:00;;;;;;;15.90;11.05;;;;;;;11.77;100.00;100875.25;5058529;28;20405;-86
2021/10/15 07:07:25;;;;;;;17.77;12.95;;;;;;;11.77;100.00;100859.97;5059695;28;20477;-83
2021/10/15 07:09:50;;;;;;;20.27;11.70;;;;;;;11.76;100.00;100877.09;5046131;28;20043;-85
2021/10/15 07:12:16;;;;;;;19.48;12.60;;;;;;;11.76;100.00;100877.09;5054513;28;20033;-82
2021/10/15 07:14:41;;;;;;;23.48;11.88;;;;;;;11.74;100.00;100876.44;5062159;28;20136;-86
2021/10/15 07:17:06;;;;;;;22.42;12.55;;;;;;;11.72;100.00;100890.03;5063972;28;20119;-85
2021/10/15 07:19:33;;;;;;;20.33;13.02;;;;;;;11.69;100.00;100898.44;5060571;28;20099;-85
2021/10/15 07:22:01;;;;;;;19.17;13.45;;;;;;;11.66;100.00;100922.16;5056837;28;20382;-85
2021/10/15 07:24:27;;;;;;;21.23;12.77;;;;;;;11.65;100.00;100926.69;5066343;28;20089;-85
2021/10/15 07:26:54;;;;;;;22.50;13.60;;;;;;;11.64;100.00;100953.72;5069384;28;20037;-82
2021/10/15 07:29:21;;;;;;;26.90;14.68;;;;;;;11.60;100.00;100969.34;5060280;28;20572;-84
2021/10/15 07:31:47;;;;;;;21.10;14.52;;;;;;;11.52;100.00;100975.53;5049655;28;20400;-81
2021/10/15 07:34:13;;;;;;;22.13;15.98;;;;;;;11.49;100.00;100988.47;5065041;28;20036;-87
2021/10/15 07:36:38;;;;;;;25.85;16.88;;;;;;;11.47;100.00;100998.53;5057476;28;20041;-89
2021/10/15 07:39:06;;;;;;;27.63;18.77;;;;;;;11.45;100.00;100984.44;5055920;28;20095;-85
2021/10/15 07:41:31;;;;;;;29.60;20.08;;;;;;;11.45;100.00;100995.16;5055759;28;20032;-85
2021/10/15 07:43:58;;;;;;;26.70;19.00;;;;;;;11.44;100.00;100999.72;5057846;28;20502;-86
2021/10/15 07:46:23;;;;;;;25.85;17.83;;;;;;;11.45;100.00;101005.91;5041352;28;20033;-83
2021/10/15 07:48:49;;;;;;;26.70;18.58;;;;;;;11.45;100.00;100995.16;5031529;28;20036;-88
2021/10/15 07:51:14;;;;;;;23.80;17.08;;;;;;;11.44;100.00;101005.09;5058868;28;20084;-87
2021/10/15 07:53:40;;;;;;;24.60;15.82;;;;;;;11.44;100.00;101013.16;5062489;28;21727;-85
2021/10/15 07:56:05;;;;;;;19.77;13.45;;;;;;;11.42;100.00;101015.19;5064818;28;20361;-84
2021/10/15 07:58:30;;;;;;;15.95;11.63;;;;;;;11.41;100.00;101016.16;5066470;28;20045;-84
2021/10/15 08:00:56;;;;;;;13.80;8.20;;;;;;;11.37;100.00;101028.25;5052281;28;20045;-85
2021/10/15 08:03:21;;;;;;;13.93;8.60;;;;;;;11.34;100.00;101035.81;5063608;28;20037;-84
2021/10/15 08:05:48;;;;;;;6.85;4.20;;;;;;;11.26;100.00;101036.63;5068394;28;20045;-88
2021/10/15 08:08:13;;;;;;;3.35;1.75;;;;;;;11.15;100.00;101050.34;5051608;28;20028;-82
2021/10/15 08:10:38;;;;;;;4.93;2.63;;;;;;;11.07;100.00;101060.03;5062913;28;20094;-85
2021/10/15 08:13:04;;;;;;;7.30;3.22;;;;;;;11.06;100.00;101055.66;5044078;28;20041;-87
2021/10/15 08:15:30;;;;;;;4.93;3.03;;;;;;;11.07;100.00;101057.34;5043073;28;20033;-87
2021/10/15 08:17:56;;;;;;;4.75;3.15;;;;;;;11.11;100.00;101063.25;5034765;28;20132;-86
2021/10/15 08:20:23;;;;;;;7.25;3.45;;;;;;;11.15;100.00;101069.16;5036673;28;20041;-85
2021/10/15 08:22:50;;;;;;;5.90;3.45;;;;;;;11.15;100.00;101064.59;5046129;28;20154;-89
2021/10/15 08:25:19;;;;;;;5.07;2.90;;;;;;;11.17;100.00;101072.50;5058577;28;20072;-85
2021/10/15 08:27:50;;;;;;;4.00;2.80;;;;;;;11.20;100.00;101077.56;5046367;28;20040;-88
2021/10/15 08:30:18;;;;;;;4.25;2.20;;;;;;;11.18;100.00;101080.41;5069805;28;20044;-85
2021/10/15 08:32:43;;;;;;;3.88;1.60;;;;;;;11.17;100.00;101083.25;5068281;28;20127;-83
2021/10/15 08:35:10;;;;;;;2.28;1.23;;;;;;;11.12;100.00;101088.28;5068327;28;20148;-87
2021/10/15 08:37:37;;;;;;;1.48;1.00;;;;;;;11.07;100.00;101089.56;5066362;28;20082;-84
2021/10/15 08:40:05;;;;;;;3.17;1.30;;;;;;;11.04;100.00;101091.75;5061408;28;20044;-83
2021/10/15 08:42:38;;;;;;;2.30;0.88;;;;;;;10.96;100.00;101097.94;5066481;28;20056;-81
2021/10/15 08:45:06;;;;;;;4.05;1.27;;;;;;;10.92;100.00;101109.97;5085881;28;20048;-82
2021/10/15 08:47:33;;;;;;;2.28;0.90;;;;;;;10.90;100.00;101114.66;5075911;28;20056;-82
2021/10/15 08:49:58;;;;;;;5.00;1.38;;;;;;;10.86;100.00;101118.66;5068495;28;20044;-85
2021/10/15 08:52:23;;;;;;;3.92;1.02;;;;;;;10.81;100.00;101115.59;5061872;28;20514;-83
2021/10/15 08:54:49;;;;;;;4.00;0.80;;;;;;;10.82;100.00;101125.38;5067686;28;20443;-90
2021/10/15 08:57:15;;;;;;;2.88;0.88;;;;;;;10.81;100.00;101129.03;5068172;28;20045;-85
2021/10/15 08:59:50;;;;;;;3.53;1.23;;;;;;;10.80;100.00;101130.88;5063797;28;20051;-88
2021/10/15 09:02:17;;;;;;;6.43;1.10;;;;;;;10.83;100.00;101129.72;5054606;28;20422;-87
2021/10/15 09:04:48;;;;;;;1.48;0.80;;;;;;;10.79;100.00;101129.19;5046283;28;20062;-85
2021/10/15 09:07:15;;;;;;;4.45;1.30;;;;;;;10.81;100.00;101131.72;5039704;28;20030;-85
2021/10/15 09:09:44;;;;;;;5.00;1.20;;;;;;;10.83;100.00;101127.03;5044849;28;20086;-91
2021/10/15 09:12:12;;;;;;;4.97;1.00;;;;;;;10.86;100.00;101156.25;5057178;28;20047;-86
2021/10/15 09:14:41;;;;;;;2.33;1.00;;;;;;;10.87;100.00;101160.59;5039608;28;20041;-84
2021/10/15 09:17:15;;;;;;;5.90;1.30;;;;;;;10.89;100.00;101158.63;5043812;28;20037;-87
2021/10/15 09:19:50;;;;;;;7.00;2.15;;;;;;;10.91;100.00;101150.41;5064714;28;20120;-86
2021/10/15 09:22:25;;;;;;;5.07;1.42;;;;;;;10.93;100.00;101167.19;5065361;28;20546;-86
2021/10/15 09:25:07;;;;;;;3.10;1.10;;;;;;;10.91;100.00;101162.00;5055949;28;20132;-90
2021/10/15 09:27:47;;;;;;;4.82;1.30;;;;;;;10.95;100.00;101160.66;5049803;28;20162;-85
2021/10/15 09:30:18;;;;;;;5.65;1.10;;;;;;;10.97;100.00;101161.38;5045519;28;20434;-83
2021/10/15 09:32:50;;;;;;;4.88;1.13;;;;;;;10.95;100.00;101176.78;5047327;28;20039;-85
2021/10/15 09:35:22;;;;;;;6.45;1.20;;;;;;;10.98;100.00;101175.63;5067202;28;20029;-89
2021/10/15 09:37:50;;;;;;;6.00;1.60;;;;;;;11.07;100.00;101178.19;5059644;28;20512;-86
2021/10/15 09:40:20;;;;;;;4.93;1.20;;;;;;;11.17;100.00;101188.84;5063277;28;20064;-89
2021/10/15 09:42:52;;;;;;;4.90;1.55;;;;;;;11.18;100.00;101184.31;5061967;28;20524;-84
2021/10/15 09:45:25;;;;;;;3.88;1.50;;;;;;;11.17;100.00;101191.53;5050064;28;20132;-91
2021/10/15 09:48:00;;;;;;;4.72;1.40;;;;;;;11.16;100.00;101194.38;5065211;28;20043;-84
2021/10/15 09:50:27;;;;;;;6.05;2.35;;;;;;;11.15;100.00;101188.16;5052762;28;20048;-86
2021/10/15 09:52:56;;;;;;;5.60;1.85;;;;;;;11.18;100.00;101187.00;5066485;28;20036;-89
2021/10/15 09:55:34;;;;;;;5.03;1.58;;;;;;;11.30;100.00;101193.78;5065123;28;20033;-85
2021/10/15 09:58:19;;;;;;;4.35;1.55;;;;;;;11.41;100.00;101198.88;5063801;28;20127;-84
2021/10/15 10:00:46;;;;;;;6.07;1.95;;;;;;;11.46;100.00;101203.81;5065043;28;20044;-86
2021/10/15 10:03:11;;;;;;;8.02;2.05;;;;;;;11.47;100.00;101211.69;5060907;28;20044;-83
2021/10/15 10:05:38;;;;;;;8.25;2.22;;;;;;;11.49;100.00;101209.69;5056083;28;20029;-85
2021/10/15 10:08:07;;;;;;;5.00;1.60;;;;;;;11.57;100.00;101214.28;5064641;28;20039;-85
2021/10/15 10:10:35;;;;;;;4.13;1.45;;;;;;;11.58;100.00;101220.47;5062602;28;20054;-84
2021/10/15 10:13:02;;;;;;;4.25;1.33;;;;;;;11.65;100.00;101218.81;5061970;28;20134;-85
2021/10/15 10:15:44;;;;;;;7.07;2.03;;;;;;;11.77;100.00;101220.25;5059138;28;20177;-86
2021/10/15 10:18:31;;;;;;;6.32;1.77;;;;;;;11.90;100.00;101236.78;5061292;28;20044;-84
2021/10/15 10:21:13;;;;;;;7.80;1.75;;;;;;;11.92;100.00;101232.09;5076141;28;20109;-90
2021/10/15 10:23:53;;;;;;;5.65;1.30;;;;;;;11.96;100.00;101228.06;5051159;28;20044;-91
2021/10/15 10:26:21;;;;;;;6.00;1.50;;;;;;;12.07;100.00;101236.84;5066108;28;20217;-84
2021/10/15 10:29:06;;;;;;;6.55;1.50;;;;;;;12.10;100.00;101239.22;5063178;28;20370;-82
2021/10/15 10:31:33;;;;;;;9.35;1.88;;;;;;;12.22;100.00;101240.59;5043583;28;20390;-85
2021/10/15 10:34:02;;;;;;;7.28;1.80;;;;;;;12.32;100.00;101241.31;5039445;28;20045;-85
2021/10/15 10:36:30;;;;;;;6.03;1.30;;;;;;;12.33;100.00;101256.44;5040199;28;20064;-86
2021/10/15 10:38:56;;;;;;;5.97;1.48;;;;;;;12.38;100.00;101253.25;5041956;28;20044;-85
2021/10/15 10:41:30;;;;;;;6.45;1.83;;;;;;;12.41;99.67;101245.69;5040915;28;20092;-81
2021/10/15 10:43:56;;;;;;;7.53;2.00;;;;;;;12.35;96.76;101256.28;5062330;28;20081;-88
2021/10/15 10:46:25;;;;;;;7.22;1.30;;;;;;;12.30;95.43;101262.13;5050177;28;20485;-83
2021/10/15 10:48:54;;;;;;;;;;;;;;;12.30;95.09;101264.84;5042842;28;20036;-82
2021/10/15 10:51:19;;;;;;;;;;;;;;;12.26;96.22;101271.56;5038817;28;19917;-87
2021/10/15 10:54:07;;;;;;;6.03;1.37;;;;;;;12.25;98.49;101272.53;5046383;28;20471;-86
2021/10/15 10:56:38;;;;;;;10.77;1.50;;;;;;;12.33;98.14;101269.88;5038605;28;20287;-86
2021/10/15 10:59:19;;;;;;;9.77;1.75;;;;;;;12.47;97.90;101272.97;5034388;28;20043;-88
2021/10/15 11:02:10;;;;;;;8.05;1.60;;;;;;;12.62;96.88;101268.59;5034247;28;20047;-86
2021/10/15 11:04:53;;;;;;;7.22;1.63;;;;;;;12.68;91.28;101267.09;5041633;28;20043;-86
2021/10/15 11:07:20;;;;;;;6.78;1.15;;;;;;;12.74;89.26;101272.66;5051662;28;20033;-84
2021/10/15 11:09:53;;;;;;;6.22;1.50;;;;;;;12.80;86.42;101277.41;5047043;28;20123;-85
2021/10/15 11:12:28;;;;;;;10.38;1.40;;;;;;;12.80;86.10;101276.53;5048028;28;20051;-88
2021/10/15 11:15:04;;;;;;;8.40;1.30;;;;;;;12.83;85.88;101282.44;5054831;28;20048;-85
2021/10/15 11:17:37;;;;;;;8.57;1.30;;;;;;;13.01;87.58;101274.19;5058088;28;20039;-86
2021/10/15 11:20:07;;;;;;;3.88;0.82;;;;;;;13.12;85.07;101283.81;5061292;28;20040;-87
2021/10/15 11:22:32;;;;;;;4.55;1.05;;;;;;;13.23;84.24;101288.81;5060330;28;20090;-87
2021/10/15 11:24:59;;;;;;;7.53;1.50;;;;;;;13.29;82.80;101285.50;5044498;28;20041;-85
2021/10/15 11:27:25;;;;;;;5.03;1.00;;;;;;;13.30;81.91;101284.47;5061265;28;20440;-84
2021/10/15 11:29:53;;;;;;;7.10;1.30;;;;;;;13.33;80.58;101283.31;5065928;28;20044;-83
2021/10/15 11:32:44;;;;;;;5.43;1.30;;;;;;;13.41;80.72;101286.00;5062052;28;20400;-88
2021/10/15 11:35:18;;;;;;;6.30;1.25;;;;;;;13.47;79.33;101289.84;5042768;28;20041;-84